createdAt,value
2018-04-19T00:00:14.779Z,10.60
2018-04-19T00:02:42.297Z,10.50
2018-04-19T00:05:09.806Z,10.40
2018-04-19T00:07:37.442Z,10.30
2018-04-19T00:10:05.757Z,10.40
2018-04-19T00:12:35.220Z,10.40
2018-04-19T00:15:02.740Z,10.30
2018-04-19T00:17:30.300Z,10.30
2018-04-19T00:19:57.800Z,10.10
2018-04-19T00:22:44.015Z,10.00
2018-04-19T00:27:52.083Z,9.80
2018-04-19T00:30:19.657Z,9.80
2018-04-19T00:32:47.216Z,9.80
2018-04-19T00:35:15.664Z,9.80
2018-04-19T00:37:44.104Z,9.80
2018-04-19T00:40:11.593Z,9.70
2018-04-19T00:42:40.149Z,9.60
2018-04-19T00:45:07.658Z,9.60
2018-04-19T00:47:35.940Z,9.60
2018-04-19T00:50:03.565Z,9.60
2018-04-19T00:52:43.876Z,9.60
2018-04-19T00:55:11.488Z,9.70
2018-04-19T00:57:40.470Z,9.70
2018-04-19T01:00:08.905Z,9.70
2018-04-19T01:02:36.497Z,9.60
2018-04-19T01:05:04.841Z,9.40
2018-04-19T01:07:32.394Z,9.40
2018-04-19T01:09:59.906Z,9.40
2018-04-19T01:12:27.408Z,9.40
2018-04-19T01:14:54.959Z,9.40
2018-04-19T01:17:22.511Z,9.40
2018-04-19T01:19:50.022Z,9.30
2018-04-19T01:22:18.523Z,9.10
2018-04-19T01:24:46.061Z,9.10
2018-04-19T01:27:14.524Z,9.10
2018-04-19T01:29:43.978Z,9.30
2018-04-19T01:32:11.543Z,9.50
2018-04-19T01:34:39.147Z,9.50
2018-04-19T01:37:06.659Z,9.60
2018-04-19T01:39:35.095Z,9.40
2018-04-19T01:42:02.690Z,9.40
2018-04-19T01:44:31.256Z,9.50
2018-04-19T01:47:00.714Z,9.70
2018-04-19T01:49:28.257Z,9.80
2018-04-19T01:51:55.782Z,9.90
2018-04-19T01:54:24.298Z,9.80
2018-04-19T01:56:51.855Z,9.80
2018-04-19T01:59:19.419Z,9.70
2018-04-19T02:01:46.958Z,9.50
2018-04-19T02:04:14.491Z,9.40
2018-04-19T02:06:41.990Z,9.30
2018-04-19T02:09:09.502Z,9.30
2018-04-19T02:11:37.992Z,9.30
2018-04-19T02:14:06.443Z,9.40
2018-04-19T02:16:33.987Z,9.60
2018-04-19T02:19:02.481Z,9.40
2018-04-19T02:21:30.083Z,9.20
2018-04-19T02:23:58.011Z,9.00
2018-04-19T02:26:25.610Z,8.90
2018-04-19T02:28:53.180Z,8.80
2018-04-19T02:31:20.788Z,8.80
2018-04-19T02:33:50.031Z,8.80
2018-04-19T02:36:18.529Z,8.80
2018-04-19T02:38:46.061Z,8.80
2018-04-19T02:41:13.595Z,8.80
2018-04-19T02:43:41.868Z,9.10
2018-04-19T02:46:09.429Z,9.10
2018-04-19T02:48:37.002Z,9.20
2018-04-19T02:51:06.216Z,9.40
2018-04-19T02:53:34.514Z,9.40
2018-04-19T02:56:02.968Z,9.40
2018-04-19T02:58:30.568Z,9.60
2018-04-19T03:01:00.079Z,9.40
2018-04-19T03:03:28.473Z,8.90
2018-04-19T03:05:55.991Z,8.90
2018-04-19T03:08:23.515Z,8.90
2018-04-19T03:10:52.047Z,8.70
2018-04-19T03:13:21.377Z,9.00
2018-04-19T03:15:49.841Z,9.00
2018-04-19T03:18:18.250Z,9.20
2018-04-19T03:20:45.789Z,9.10
2018-04-19T03:23:13.356Z,9.00
2018-04-19T03:25:40.912Z,8.80
2018-04-19T03:28:09.239Z,8.50
2018-04-19T03:30:37.756Z,8.40
2018-04-19T03:33:05.341Z,8.60
2018-04-19T03:35:35.916Z,8.60
2018-04-19T03:38:03.470Z,8.60
2018-04-19T03:43:28.756Z,8.60
2018-04-19T03:45:56.281Z,8.40
2018-04-19T03:48:23.843Z,8.20
2018-04-19T03:50:52.343Z,8.10
2018-04-19T03:53:19.917Z,8.00
2018-04-19T03:55:48.335Z,8.00
2018-04-19T03:58:17.335Z,8.00
2018-04-19T04:00:44.838Z,8.00
2018-04-19T04:03:12.358Z,8.10
2018-04-19T04:05:40.682Z,8.10
2018-04-19T04:08:08.210Z,8.10
2018-04-19T04:13:36.212Z,8.60
2018-04-19T04:16:06.727Z,8.40
2018-04-19T04:18:58.668Z,8.40
2018-04-19T04:21:26.193Z,8.30
2018-04-19T04:23:53.713Z,8.30
2018-04-19T04:26:22.188Z,8.50
2018-04-19T04:28:49.767Z,8.60
2018-04-19T04:31:19.272Z,8.70
2018-04-19T04:33:46.875Z,8.60
2018-04-19T04:36:14.574Z,8.60
2018-04-19T04:38:42.166Z,8.80
2018-04-19T04:41:09.682Z,9.10
2018-04-19T04:43:37.276Z,9.40
2018-04-19T04:46:04.827Z,9.70
2018-04-19T04:48:32.334Z,9.90
2018-04-19T04:51:00.077Z,10.00
2018-04-19T04:53:27.596Z,10.30
2018-04-19T04:55:55.125Z,10.30
2018-04-19T04:58:22.612Z,10.10
2018-04-19T05:00:51.109Z,10.00
2018-04-19T05:03:20.333Z,9.60
2018-04-19T05:05:47.951Z,9.60
2018-04-19T05:08:18.420Z,9.50
2018-04-19T05:10:46.003Z,9.40
2018-04-19T05:13:14.941Z,9.50
2018-04-19T05:15:42.540Z,9.50
2018-04-19T05:18:10.132Z,9.50
2018-04-19T05:20:38.452Z,9.50
2018-04-19T05:23:06.012Z,9.50
2018-04-19T05:25:34.591Z,9.60
2018-04-19T05:28:05.035Z,9.90
2018-04-19T05:30:32.639Z,9.90
2018-04-19T05:33:01.020Z,10.30
2018-04-19T05:35:28.641Z,10.30
2018-04-19T05:37:56.182Z,10.50
2018-04-19T05:40:23.724Z,10.60
2018-04-19T05:42:52.220Z,10.70
2018-04-19T05:45:20.605Z,10.90
2018-04-19T05:47:48.134Z,10.90
2018-04-19T05:50:15.771Z,11.00
2018-04-19T05:52:43.307Z,11.00
2018-04-19T05:55:10.846Z,11.10
2018-04-19T05:57:38.405Z,11.20
2018-04-19T06:00:05.911Z,11.40
2018-04-19T06:02:33.472Z,11.50
2018-04-19T06:05:01.002Z,11.60
2018-04-19T06:07:28.615Z,11.70
2018-04-19T06:09:56.278Z,11.80
2018-04-19T06:12:23.812Z,11.90
2018-04-19T06:14:52.098Z,12.00
2018-04-19T06:17:20.417Z,12.10
2018-04-19T06:19:47.927Z,12.10
2018-04-19T06:22:16.520Z,12.20
2018-04-19T06:24:44.080Z,12.20
2018-04-19T06:27:11.595Z,12.20
2018-04-19T06:29:39.299Z,12.40
2018-04-19T06:32:06.811Z,12.70
2018-04-19T06:34:35.867Z,13.10
2018-04-19T06:37:03.391Z,13.90
2018-04-19T06:39:32.871Z,14.00
2018-04-19T06:42:00.607Z,13.90
2018-04-19T06:44:28.840Z,13.50
2018-04-19T06:46:56.432Z,13.30
2018-04-19T06:49:24.937Z,13.50
2018-04-19T06:51:53.239Z,13.60
2018-04-19T06:54:21.539Z,13.90
2018-04-19T06:56:49.705Z,13.90
2018-04-19T06:59:18.979Z,13.60
2018-04-19T07:01:46.517Z,13.60
2018-04-19T07:04:16.001Z,13.90
2018-04-19T07:06:43.604Z,14.10
2018-04-19T07:09:12.162Z,14.10
2018-04-19T07:11:39.780Z,14.10
2018-04-19T07:14:08.074Z,13.60
2018-04-19T07:16:36.374Z,13.80
2018-04-19T07:19:03.911Z,13.80
2018-04-19T07:21:31.516Z,14.00
2018-04-19T07:24:00.146Z,13.90
2018-04-19T07:26:27.655Z,13.60
2018-04-19T07:28:55.294Z,13.50
2018-04-19T07:31:22.887Z,13.70
2018-04-19T07:33:50.485Z,13.50
2018-04-19T07:36:18.171Z,13.60
2018-04-19T07:38:46.674Z,13.80
2018-04-19T07:41:14.193Z,13.80
2018-04-19T07:43:42.783Z,13.80
2018-04-19T07:46:29.080Z,13.70
2018-04-19T07:49:05.036Z,14.00
2018-04-19T07:54:35.538Z,14.40
2018-04-19T07:57:03.116Z,14.60
2018-04-19T07:59:31.575Z,14.30
2018-04-19T08:02:00.001Z,14.50
2018-04-19T08:04:27.549Z,14.40
2018-04-19T08:06:55.176Z,14.60
2018-04-19T08:09:22.904Z,14.80
2018-04-19T08:11:50.479Z,14.80
2018-04-19T08:14:18.976Z,15.10
2018-04-19T08:16:47.435Z,15.60
2018-04-19T08:19:15.009Z,15.50
2018-04-19T08:21:42.634Z,15.70
2018-04-19T08:24:10.975Z,15.80
2018-04-19T08:26:39.475Z,15.80
2018-04-19T08:29:07.114Z,15.70
2018-04-19T08:31:34.852Z,15.90
2018-04-19T08:34:04.361Z,16.10
2018-04-19T08:36:32.780Z,16.20
2018-04-19T08:39:00.325Z,16.20
2018-04-19T08:41:28.771Z,16.40
2018-04-19T08:44:15.913Z,16.90
2018-04-19T08:46:45.379Z,16.90
2018-04-19T08:52:29.536Z,16.50
2018-04-19T08:54:57.868Z,17.10
2018-04-19T08:57:27.348Z,17.20
2018-04-19T08:59:54.867Z,16.90
2018-04-19T09:02:24.379Z,16.70
2018-04-19T09:08:27.123Z,17.10
2018-04-19T09:10:54.742Z,16.90
2018-04-19T09:16:20.737Z,16.80
2018-04-19T09:18:50.073Z,17.10
2018-04-19T09:21:20.626Z,17.10
2018-04-19T09:24:09.287Z,17.40
2018-04-19T09:26:36.818Z,17.40
2018-04-19T09:29:05.160Z,17.30
2018-04-19T09:31:32.676Z,17.30
2018-04-19T09:34:00.976Z,17.60
2018-04-19T09:36:28.559Z,17.60
2018-04-19T09:38:57.080Z,17.30
2018-04-19T09:41:24.669Z,17.30
2018-04-19T09:43:53.002Z,17.50
2018-04-19T09:46:20.541Z,17.50
2018-04-19T09:48:48.076Z,17.50
2018-04-19T09:51:17.251Z,17.60
2018-04-19T09:53:44.782Z,17.60
2018-04-19T09:56:12.289Z,17.40
2018-04-19T09:58:40.853Z,17.40
2018-04-19T10:01:10.305Z,17.60
2018-04-19T10:03:44.170Z,17.60
2018-04-19T10:06:11.700Z,17.60
2018-04-19T10:08:40.150Z,17.40
2018-04-19T10:11:08.546Z,17.40
2018-04-19T10:13:37.771Z,17.10
2018-04-19T10:16:05.398Z,17.10
2018-04-19T10:18:32.916Z,17.30
2018-04-19T10:21:00.427Z,17.80
2018-04-19T10:23:28.839Z,17.60
2018-04-19T10:25:56.443Z,17.50
2018-04-19T10:28:24.048Z,17.50
2018-04-19T10:30:51.612Z,17.50
2018-04-19T10:33:19.200Z,17.60
2018-04-19T10:35:46.762Z,17.80
2018-04-19T10:38:15.030Z,18.00
2018-04-19T10:40:44.262Z,18.00
2018-04-19T10:43:12.517Z,18.00
2018-04-19T10:45:40.796Z,18.30
2018-04-19T10:48:08.376Z,18.30
2018-04-19T10:50:35.980Z,18.50
2018-04-19T10:53:03.492Z,18.70
2018-04-19T10:55:33.710Z,18.30
2018-04-19T10:58:01.989Z,18.50
2018-04-19T11:00:30.330Z,18.80
2018-04-19T11:02:57.891Z,18.80
2018-04-19T11:05:25.518Z,19.00
2018-04-19T11:07:53.113Z,19.00
2018-04-19T11:10:21.393Z,18.90
2018-04-19T11:12:49.883Z,19.00
2018-04-19T11:15:36.029Z,19.30
2018-04-19T11:18:04.373Z,19.40
2018-04-19T11:20:31.938Z,19.40
2018-04-19T11:25:59.428Z,19.70
2018-04-19T11:28:26.952Z,19.60
2018-04-19T11:30:54.503Z,20.00
2018-04-19T11:33:22.112Z,20.00
2018-04-19T11:35:49.627Z,19.70
2018-04-19T11:38:17.146Z,19.80
2018-04-19T11:40:44.760Z,19.70
2018-04-19T11:43:13.230Z,19.80
2018-04-19T11:45:40.737Z,20.00
2018-04-19T11:48:08.247Z,19.90
2018-04-19T11:50:35.829Z,20.20
2018-04-19T11:53:03.397Z,20.40
2018-04-19T11:55:30.915Z,20.20
2018-04-19T11:57:58.415Z,20.40
2018-04-19T12:00:27.647Z,20.70
2018-04-19T12:02:55.878Z,20.70
2018-04-19T12:05:25.151Z,20.80
2018-04-19T12:07:54.651Z,20.80
2018-04-19T12:10:22.184Z,20.90
2018-04-19T12:12:50.657Z,20.80
2018-04-19T12:15:19.912Z,20.90
2018-04-19T12:17:47.545Z,20.90
2018-04-19T12:20:15.051Z,20.80
2018-04-19T12:22:43.514Z,20.60
2018-04-19T12:25:11.995Z,20.60
2018-04-19T12:27:40.545Z,21.00
2018-04-19T12:30:08.913Z,21.20
2018-04-19T12:32:36.484Z,21.10
2018-04-19T12:35:04.808Z,21.10
2018-04-19T12:37:34.380Z,21.10
2018-04-19T12:40:01.918Z,20.90
2018-04-19T12:42:29.477Z,21.00
2018-04-19T12:44:57.065Z,21.40
2018-04-19T12:47:25.344Z,21.30
2018-04-19T12:49:52.907Z,21.20
2018-04-19T12:52:20.454Z,21.40
2018-04-19T12:54:48.064Z,21.40
2018-04-19T12:57:17.584Z,21.60
2018-04-19T12:59:45.081Z,21.50
2018-04-19T13:02:13.536Z,21.50
2018-04-19T13:04:41.084Z,21.80
2018-04-19T13:07:08.658Z,21.90
2018-04-19T13:09:37.175Z,22.00
2018-04-19T13:12:04.763Z,22.10
2018-04-19T13:14:33.260Z,22.00
2018-04-19T13:17:00.753Z,22.00
2018-04-19T13:19:28.301Z,22.00
2018-04-19T13:21:56.617Z,22.30
2018-04-19T13:24:24.155Z,22.30
2018-04-19T13:26:51.705Z,22.60
2018-04-19T13:29:19.203Z,22.40
2018-04-19T13:31:46.728Z,22.70
2018-04-19T13:34:14.693Z,22.80
2018-04-19T13:36:42.202Z,22.60
2018-04-19T13:39:09.725Z,22.70
2018-04-19T13:41:37.389Z,22.50
2018-04-19T13:44:05.700Z,22.30
2018-04-19T13:46:34.155Z,22.30
2018-04-19T13:49:01.762Z,22.20
2018-04-19T13:51:48.055Z,22.30
2018-04-19T13:54:15.557Z,22.60
2018-04-19T13:56:43.133Z,22.80
2018-04-19T13:59:10.688Z,22.70
2018-04-19T14:01:39.004Z,22.80
2018-04-19T14:04:07.297Z,22.90
2018-04-19T14:06:34.869Z,22.90
2018-04-19T14:09:02.415Z,23.00
2018-04-19T14:11:32.616Z,23.00
2018-04-19T14:14:01.116Z,23.00
2018-04-19T14:16:29.466Z,23.20
2018-04-19T14:18:58.904Z,23.20
2018-04-19T14:21:28.058Z,23.10
2018-04-19T14:23:55.560Z,23.20
2018-04-19T14:26:25.043Z,23.30
2018-04-19T14:28:52.684Z,23.40
2018-04-19T14:31:22.231Z,23.20
2018-04-19T14:33:50.716Z,23.00
2018-04-19T14:36:19.234Z,22.90
2018-04-19T14:38:47.507Z,23.10
2018-04-19T14:41:17.039Z,23.10
2018-04-19T14:43:46.246Z,23.00
2018-04-19T14:46:14.755Z,22.90
2018-04-19T14:48:43.189Z,23.10
2018-04-19T14:51:10.752Z,23.20
2018-04-19T14:53:39.241Z,23.20
2018-04-19T14:56:07.726Z,23.30
2018-04-19T14:58:38.004Z,23.60
2018-04-19T15:01:05.618Z,23.60
2018-04-19T15:03:33.978Z,23.70
2018-04-19T15:06:01.482Z,23.70
2018-04-19T15:08:29.757Z,23.90
2018-04-19T15:10:58.850Z,23.60
2018-04-19T15:13:30.113Z,23.70
2018-04-19T15:15:58.431Z,23.60
2018-04-19T15:18:44.871Z,23.60
2018-04-19T15:21:13.147Z,23.80
2018-04-19T15:26:21.364Z,24.00
2018-04-19T15:28:49.687Z,23.80
2018-04-19T15:31:17.952Z,23.80
2018-04-19T15:33:46.237Z,23.80
2018-04-19T15:36:14.523Z,23.90
2018-04-19T15:38:42.801Z,23.90
2018-04-19T15:41:11.102Z,24.00
2018-04-19T15:43:38.680Z,24.00
2018-04-19T15:46:06.222Z,24.00
2018-04-19T15:48:35.696Z,24.10
2018-04-19T15:51:03.214Z,24.10
2018-04-19T15:53:31.813Z,24.20
2018-04-19T15:55:59.317Z,24.10
2018-04-19T16:01:25.357Z,24.30
2018-04-19T16:03:55.315Z,24.30
2018-04-19T16:06:22.854Z,24.10
2018-04-19T16:08:51.119Z,24.20
2018-04-19T16:11:18.704Z,24.10
2018-04-19T16:13:46.320Z,24.30
2018-04-19T16:16:14.812Z,24.10
2018-04-19T16:19:00.953Z,24.10
2018-04-19T16:21:28.518Z,24.00
2018-04-19T16:23:56.061Z,23.90
2018-04-19T16:26:23.532Z,23.80
2018-04-19T16:31:49.989Z,23.60
2018-04-19T16:34:18.628Z,23.60
2018-04-19T16:36:46.765Z,23.60
2018-04-19T16:39:15.231Z,23.60
2018-04-19T16:41:43.557Z,23.70
2018-04-19T16:44:12.049Z,23.70
2018-04-19T16:46:39.604Z,23.70
2018-04-19T16:49:07.203Z,23.60
2018-04-19T16:51:35.731Z,23.60
2018-04-19T16:54:03.278Z,23.50
2018-04-19T16:56:31.541Z,23.20
2018-04-19T16:59:00.118Z,23.20
2018-04-19T17:01:27.647Z,23.10
2018-04-19T17:03:56.123Z,22.90
2018-04-19T17:06:23.687Z,22.90
2018-04-19T17:08:51.301Z,22.70
2018-04-19T17:11:18.914Z,22.70
2018-04-19T17:13:46.406Z,22.60
2018-04-19T17:16:14.827Z,22.40
2018-04-19T17:18:45.031Z,22.00
2018-04-19T17:21:12.538Z,22.00
2018-04-19T17:23:40.089Z,21.90
2018-04-19T17:26:26.234Z,21.50
2018-04-19T17:31:35.556Z,21.40
2018-04-19T17:34:23.340Z,21.30
2018-04-19T17:36:50.855Z,21.20
2018-04-19T17:39:18.436Z,21.00
2018-04-19T17:41:46.003Z,20.80
2018-04-19T17:44:13.554Z,20.70
2018-04-19T17:46:41.128Z,20.60
2018-04-19T17:49:08.622Z,20.50
2018-04-19T17:51:37.088Z,20.40
2018-04-19T17:54:07.554Z,20.30
2018-04-19T17:56:35.838Z,20.00
2018-04-19T17:59:05.047Z,19.90
2018-04-19T18:01:33.611Z,19.80
2018-04-19T18:04:01.157Z,19.70
2018-04-19T18:06:29.376Z,19.60
2018-04-19T18:08:59.569Z,19.20
2018-04-19T18:11:27.142Z,19.20
2018-04-19T18:13:57.574Z,19.10
2018-04-19T18:16:25.164Z,19.10
2018-04-19T18:18:52.675Z,18.90
2018-04-19T18:21:21.160Z,18.80
2018-04-19T18:23:48.797Z,18.80
2018-04-19T18:26:16.293Z,18.60
2018-04-19T18:31:42.260Z,18.20
2018-04-19T18:34:11.096Z,18.00
2018-04-19T18:36:39.544Z,18.00
2018-04-19T18:39:07.821Z,17.50
2018-04-19T18:41:36.100Z,17.40
2018-04-19T18:44:04.388Z,17.50
2018-04-19T18:46:33.598Z,17.60
2018-04-19T18:49:01.859Z,17.60
2018-04-19T18:51:29.380Z,17.60
2018-04-19T18:53:56.996Z,17.50
2018-04-19T18:56:25.324Z,17.50
2018-04-19T18:58:53.717Z,17.50
2018-04-19T19:01:21.212Z,17.50
2018-04-19T19:03:49.657Z,17.30
2018-04-19T19:06:17.295Z,17.10
2018-04-19T19:08:44.825Z,16.90
2018-04-19T19:11:12.988Z,16.70
2018-04-19T19:13:41.412Z,16.50
2018-04-19T19:16:10.296Z,16.30
2018-04-19T19:18:49.742Z,16.20
2018-04-19T19:21:17.269Z,16.10
2018-04-19T19:23:45.814Z,15.80
2018-04-19T19:26:13.335Z,15.90
2018-04-19T19:31:39.728Z,16.10
2018-04-19T19:34:09.253Z,16.10
2018-04-19T19:36:36.823Z,15.80
2018-04-19T19:39:04.758Z,15.80
2018-04-19T19:41:32.984Z,15.80
2018-04-19T19:44:00.494Z,15.60
2018-04-19T19:46:28.966Z,15.30
2018-04-19T19:48:57.237Z,15.00
2018-04-19T19:51:43.379Z,15.00
2018-04-19T19:54:11.857Z,14.90
2018-04-19T19:56:41.370Z,14.80
2018-04-19T19:59:08.981Z,14.80
2018-04-19T20:04:18.749Z,14.90
2018-04-19T20:06:46.403Z,15.10
2018-04-19T20:09:14.954Z,15.10
2018-04-19T20:11:45.494Z,15.10
2018-04-19T20:14:14.037Z,15.10
2018-04-19T20:16:42.408Z,14.80
2018-04-19T20:19:09.985Z,14.80
2018-04-19T20:21:38.297Z,15.30
2018-04-19T20:24:05.843Z,15.30
2018-04-19T20:26:52.063Z,15.20
2018-04-19T20:29:19.579Z,15.10
2018-04-19T20:31:47.883Z,14.80
2018-04-19T20:34:15.400Z,14.80
2018-04-19T20:36:43.930Z,14.80
2018-04-19T20:39:11.468Z,14.70
2018-04-19T20:41:39.034Z,14.50
2018-04-19T20:44:08.251Z,14.50
2018-04-19T20:46:36.002Z,14.50
2018-04-19T20:49:03.599Z,14.60
2018-04-19T20:51:31.142Z,14.60
2018-04-19T20:54:00.462Z,14.50
2018-04-19T20:56:28.041Z,14.50
2018-04-19T20:58:56.535Z,14.50
2018-04-19T21:01:24.095Z,14.40
2018-04-19T21:04:11.556Z,14.30
2018-04-19T21:09:20.247Z,14.30
2018-04-19T21:11:49.181Z,14.30
2018-04-19T21:14:16.737Z,14.30
2018-04-19T21:16:44.332Z,14.20
2018-04-19T21:19:11.872Z,14.20
2018-04-19T21:21:43.992Z,14.30
2018-04-19T21:24:11.549Z,14.20
2018-04-19T21:26:39.237Z,14.10
2018-04-19T21:29:07.923Z,14.00
2018-04-19T21:31:35.565Z,14.00
2018-04-19T21:34:22.944Z,14.00
2018-04-19T21:36:51.086Z,14.00
2018-04-19T21:39:18.639Z,14.00
2018-04-19T21:41:46.259Z,13.90
2018-04-19T21:44:15.765Z,13.90
2018-04-19T21:46:44.224Z,13.80
2018-04-19T21:49:12.643Z,13.80
2018-04-19T21:51:41.200Z,13.90
2018-04-19T21:54:08.732Z,14.00
2018-04-19T21:56:37.034Z,14.00
2018-04-19T21:59:06.526Z,14.00
2018-04-19T22:01:34.190Z,13.90
2018-04-19T22:04:02.687Z,14.10
2018-04-19T22:06:30.280Z,14.20
2018-04-19T22:08:57.811Z,14.00
2018-04-19T22:11:25.339Z,14.00
2018-04-19T22:13:54.773Z,14.10
2018-04-19T22:16:23.976Z,13.80
2018-04-19T22:18:51.524Z,13.80
2018-04-19T22:21:19.140Z,13.70
2018-04-19T22:23:48.696Z,13.60
2018-04-19T22:26:16.256Z,13.40
2018-04-19T22:28:43.819Z,13.40
2018-04-19T22:31:15.315Z,13.20
2018-04-19T22:33:42.815Z,13.20
2018-04-19T22:36:10.370Z,13.20
2018-04-19T22:38:37.971Z,13.00
2018-04-19T22:41:05.496Z,13.00
2018-04-19T22:43:33.018Z,13.00
2018-04-19T22:46:01.308Z,13.00
2018-04-19T22:48:28.967Z,13.00
2018-04-19T22:50:56.527Z,13.00
2018-04-19T22:53:44.566Z,12.90
2018-04-19T22:56:12.175Z,12.90
2018-04-19T23:01:40.988Z,12.70
2018-04-19T23:04:08.548Z,12.60
2018-04-19T23:06:36.083Z,12.60
2018-04-19T23:09:05.687Z,12.50
2018-04-19T23:11:34.169Z,12.60
2018-04-19T23:14:02.275Z,12.60
2018-04-19T23:16:29.837Z,12.60
2018-04-19T23:18:57.341Z,12.70
2018-04-19T23:21:25.900Z,12.60
2018-04-19T23:23:55.216Z,12.70
2018-04-19T23:26:23.629Z,12.70
2018-04-19T23:28:51.940Z,12.60
2018-04-19T23:31:19.466Z,12.60
2018-04-19T23:33:47.765Z,12.60
2018-04-19T23:36:16.247Z,12.60
2018-04-19T23:38:43.791Z,12.60
2018-04-19T23:41:11.300Z,12.50
2018-04-19T23:43:38.986Z,12.40
2018-04-19T23:46:06.571Z,12.40
2018-04-19T23:48:34.050Z,12.30
2018-04-19T23:51:01.586Z,12.20
2018-04-19T23:53:30.008Z,12.20
2018-04-19T23:55:59.205Z,12.00
2018-04-19T23:58:28.425Z,12.00
